Time;durP1;ratioP1;P1;durP2;ratioP2;P2;SDS_P1;SDS_P2;PMS_P1;PMS_P2;Temp;Humidity;BMP_temperature;BMP_pressure;BME280_temperature;BME280_humidity;BME280_pressure;Samples;Min_cycle;Max_cycle;Signal;HPM_P1;HPM_P2
2023/06/17 00:00:07;;;;;;;3.88;3.20;;;19.50;46.00;;;;;;4970987;28;20069;-46
2023/06/17 00:02:37;;;;;;;3.72;3.42;;;19.50;46.40;;;;;;4971367;28;20050;-45
2023/06/17 00:05:05;;;;;;;5.70;3.60;;;19.40;46.20;;;;;;4969390;28;20054;-48
2023/06/17 00:07:32;;;;;;;3.80;3.50;;;19.40;46.40;;;;;;4969583;28;20492;-46
2023/06/17 00:10:00;;;;;;;5.43;4.10;;;19.30;46.50;;;;;;4970565;28;20125;-46
2023/06/17 00:12:31;;;;;;;3.72;3.38;;;19.30;46.70;;;;;;4966106;28;20071;-48
2023/06/17 00:15:01;;;;;;;4.78;4.07;;;19.30;46.80;;;;;;4973246;28;20062;-48
2023/06/17 00:17:31;;;;;;;4.40;4.00;;;19.20;46.80;;;;;;4969952;28;20150;-47
2023/06/17 00:20:00;;;;;;;3.97;3.42;;;19.10;46.90;;;;;;4966682;28;20532;-49
2023/06/17 00:22:29;;;;;;;5.15;4.00;;;19.10;47.00;;;;;;4975920;28;20427;-49
2023/06/17 00:24:56;;;;;;;3.65;3.35;;;19.10;47.10;;;;;;4965000;28;20050;-50
2023/06/17 00:27:23;;;;;;;3.83;3.45;;;19.00;47.10;;;;;;4971071;28;20057;-48
2023/06/17 00:29:50;;;;;;;5.47;3.65;;;19.00;47.00;;;;;;4960956;28;20082;-44
2023/06/17 00:32:24;;;;;;;4.10;3.67;;;18.90;47.00;;;;;;4964353;28;20498;-50
2023/06/17 00:34:53;;;;;;;4.07;3.65;;;18.90;47.40;;;;;;4969506;28;20058;-46
2023/06/17 00:37:20;;;;;;;3.53;3.28;;;18.80;47.00;;;;;;4970627;28;20527;-46
2023/06/17 00:39:50;;;;;;;5.07;3.78;;;18.80;47.20;;;;;;4969922;28;20061;-47
2023/06/17 00:42:20;;;;;;;4.25;3.78;;;18.70;47.40;;;;;;4947370;28;20047;-47
2023/06/17 00:44:49;;;;;;;4.38;3.97;;;18.70;47.50;;;;;;4966878;28;20039;-45
2023/06/17 00:47:19;;;;;;;4.47;3.72;;;18.70;47.50;;;;;;4964670;28;20082;-46
2023/06/17 00:49:53;;;;;;;4.10;3.55;;;18.60;47.70;;;;;;4969765;28;20526;-45
2023/06/17 00:52:20;;;;;;;6.68;3.90;;;18.50;48.10;;;;;;4969304;28;20047;-48
2023/06/17 00:55:08;;;;;;;5.53;3.70;;;18.50;48.00;;;;;;4962786;28;20039;-45
2023/06/17 00:57:37;;;;;;;3.92;3.45;;;18.50;48.10;;;;;;4970573;28;20117;-50
2023/06/17 01:00:12;;;;;;;3.97;3.58;;;18.40;48.30;;;;;;4970155;28;20043;-45
2023/06/17 01:02:44;;;;;;;4.40;4.00;;;18.40;48.40;;;;;;4970408;28;20101;-48
2023/06/17 01:05:16;;;;;;;3.97;3.63;;;18.30;48.30;;;;;;4966041;28;20054;-45
2023/06/17 01:07:46;;;;;;;6.47;3.72;;;18.30;48.50;;;;;;4969656;28;20043;-48
2023/06/17 01:10:26;;;;;;;4.55;3.97;;;18.30;48.60;;;;;;4969006;28;20467;-46
2023/06/17 01:12:55;;;;;;;5.45;3.58;;;18.30;49.10;;;;;;4965923;28;20081;-46
2023/06/17 01:15:28;;;;;;;4.70;4.18;;;18.10;48.40;;;;;;4952489;28;20047;-46
2023/06/17 01:17:58;;;;;;;4.82;3.80;;;18.20;48.70;;;;;;4968209;28;20467;-46
2023/06/17 01:20:28;;;;;;;5.40;3.65;;;18.20;48.40;;;;;;4952750;28;20047;-46
2023/06/17 01:22:59;;;;;;;5.68;3.58;;;18.10;48.50;;;;;;4971312;28;20053;-45
2023/06/17 01:25:29;;;;;;;3.95;3.40;;;18.10;48.70;;;;;;4965270;28;20504;-46
2023/06/17 01:28:00;;;;;;;4.05;3.42;;;18.10;48.70;;;;;;4962559;28;20215;-49
2023/06/17 01:30:30;;;;;;;3.95;3.65;;;18.00;48.60;;;;;;4969905;28;20102;-44
2023/06/17 01:32:58;;;;;;;3.97;3.60;;;18.00;48.70;;;;;;4967128;28;20138;-49
2023/06/17 01:35:32;;;;;;;4.07;3.67;;;17.90;48.80;;;;;;4966725;28;20043;-45
2023/06/17 01:38:09;;;;;;;5.15;4.03;;;17.90;49.20;;;;;;4962189;28;20054;-47
2023/06/17 01:40:42;;;;;;;4.60;3.78;;;17.90;49.20;;;;;;4968708;28;20074;-49
2023/06/17 01:43:15;;;;;;;6.13;3.65;;;17.80;48.80;;;;;;4967547;28;20078;-45
2023/06/17 01:45:50;;;;;;;3.80;3.50;;;17.80;49.00;;;;;;4969868;28;20039;-49
2023/06/17 01:48:16;;;;;;;3.95;3.55;;;17.70;48.70;;;;;;4973072;28;20043;-50
2023/06/17 01:50:43;;;;;;;3.75;3.45;;;17.70;48.80;;;;;;4972232;28;20046;-49
2023/06/17 01:53:16;;;;;;;4.07;3.70;;;17.70;48.90;;;;;;4967710;28;22720;-46
2023/06/17 01:55:45;;;;;;;4.88;3.65;;;17.60;48.90;;;;;;4969306;28;20038;-47
2023/06/17 01:58:12;;;;;;;4.40;4.00;;;17.60;48.90;;;;;;4972812;28;20042;-46
2023/06/17 02:00:41;;;;;;;4.05;3.70;;;17.50;48.90;;;;;;4972927;28;20047;-46
2023/06/17 02:03:09;;;;;;;4.57;3.80;;;17.50;48.90;;;;;;4969051;28;20137;-45
2023/06/17 02:05:40;;;;;;;4.07;3.60;;;17.50;49.00;;;;;;4955741;28;20046;-46
2023/06/17 02:08:14;;;;;;;4.30;3.90;;;17.40;49.20;;;;;;4971216;28;20051;-47
2023/06/17 02:10:42;;;;;;;4.40;4.00;;;17.40;49.10;;;;;;4969710;28;20051;-46
2023/06/17 02:13:11;;;;;;;4.30;3.90;;;17.30;49.00;;;;;;4967261;28;20560;-45
2023/06/17 02:15:42;;;;;;;4.47;4.07;;;17.30;49.10;;;;;;4971905;28;20081;-46
2023/06/17 02:18:12;;;;;;;5.80;4.07;;;17.30;49.40;;;;;;4955354;28;20657;-48
2023/06/17 02:20:39;;;;;;;4.38;3.97;;;17.20;49.20;;;;;;4967366;28;20043;-48
2023/06/17 02:23:05;;;;;;;5.03;4.05;;;17.10;49.30;;;;;;4976907;28;20551;-46
2023/06/17 02:25:32;;;;;;;4.60;3.88;;;17.10;49.40;;;;;;4970425;28;20050;-46
2023/06/17 02:27:59;;;;;;;4.75;4.28;;;17.10;49.50;;;;;;4972021;28;20078;-50
2023/06/17 02:30:25;;;;;;;12.30;4.85;;;17.10;49.60;;;;;;4971587;28;20070;-47
2023/06/17 02:32:54;;;;;;;5.32;4.30;;;17.00;49.70;;;;;;4970294;28;20041;-48
2023/06/17 02:35:24;;;;;;;4.30;3.90;;;17.00;49.70;;;;;;4971595;28;20555;-46
2023/06/17 02:37:52;;;;;;;4.65;4.25;;;17.00;50.10;;;;;;4970935;28;20466;-49
2023/06/17 02:40:19;;;;;;;4.55;4.15;;;16.90;49.90;;;;;;4971059;28;20046;-45
2023/06/17 02:42:52;;;;;;;4.20;3.80;;;16.90;49.80;;;;;;4950435;28;20071;-49
2023/06/17 02:45:25;;;;;;;4.80;4.40;;;16.90;50.00;;;;;;4968249;28;20045;-46
2023/06/17 02:47:54;;;;;;;5.05;4.57;;;16.80;50.10;;;;;;4971629;28;20118;-46
2023/06/17 02:50:23;;;;;;;4.57;4.20;;;16.80;50.00;;;;;;4970852;28;20070;-44
2023/06/17 02:52:55;;;;;;;5.22;4.30;;;16.80;50.10;;;;;;4969909;28;20057;-49
2023/06/17 02:55:27;;;;;;;4.85;4.38;;;16.80;50.30;;;;;;4953029;28;20070;-47
2023/06/17 02:58:05;;;;;;;4.78;4.38;;;16.70;50.00;;;;;;4955036;28;20045;-46
2023/06/17 03:00:37;;;;;;;5.70;4.35;;;16.70;50.00;;;;;;4971334;28;20046;-49
2023/06/17 03:03:11;;;;;;;4.63;4.18;;;16.70;50.00;;;;;;4966684;28;20053;-47
2023/06/17 03:05:39;;;;;;;6.50;4.60;;;16.60;50.10;;;;;;4952548;28;20689;-45
2023/06/17 03:08:08;;;;;;;4.78;4.38;;;16.60;50.10;;;;;;4970300;28;20042;-46
2023/06/17 03:10:37;;;;;;;5.28;4.63;;;16.60;50.20;;;;;;4965185;28;20138;-45
2023/06/17 03:13:13;;;;;;;4.70;4.18;;;16.50;50.20;;;;;;4969010;28;20148;-48
2023/06/17 03:15:46;;;;;;;;;;;16.50;50.30;;;;;;4971558;28;20035;-48
2023/06/17 03:18:15;;;;;;;4.57;4.15;;;16.50;49.80;;;;;;4970918;28;19926;-45
2023/06/17 03:20:44;;;;;;;6.03;4.32;;;16.50;49.80;;;;;;4968179;28;20113;-46
2023/06/17 03:23:11;;;;;;;4.63;4.22;;;16.40;50.10;;;;;;4953727;28;20519;-47
2023/06/17 03:25:40;;;;;;;4.78;3.90;;;16.40;50.30;;;;;;4968487;28;20056;-47
2023/06/17 03:28:06;;;;;;;4.78;4.38;;;16.40;50.40;;;;;;4970798;28;20050;-45
2023/06/17 03:30:40;;;;;;;5.82;4.88;;;16.30;50.50;;;;;;4971072;28;20065;-50
2023/06/17 03:33:12;;;;;;;6.25;4.43;;;16.30;50.90;;;;;;4969652;28;20158;-50
2023/06/17 03:35:39;;;;;;;4.85;4.18;;;16.30;51.00;;;;;;4967989;28;20043;-46
2023/06/17 03:38:09;;;;;;;4.88;4.47;;;16.30;50.90;;;;;;4971739;28;20045;-47
2023/06/17 03:40:36;;;;;;;5.63;4.68;;;16.20;51.10;;;;;;4965370;28;20043;-48
2023/06/17 03:43:06;;;;;;;5.63;4.72;;;16.20;51.20;;;;;;4971178;28;20046;-50
2023/06/17 03:45:35;;;;;;;6.78;5.07;;;16.30;51.50;;;;;;4969186;28;20142;-45
2023/06/17 03:48:03;;;;;;;5.93;4.63;;;16.20;51.50;;;;;;4946688;28;20054;-49
2023/06/17 03:50:37;;;;;;;5.05;4.55;;;16.20;51.40;;;;;;4954116;28;20510;-48
2023/06/17 03:53:08;;;;;;;5.00;4.60;;;16.20;51.40;;;;;;4944907;28;20519;-44
2023/06/17 03:55:39;;;;;;;5.53;4.85;;;16.20;51.60;;;;;;4968991;28;20045;-47
2023/06/17 03:58:06;;;;;;;5.63;5.20;;;16.30;51.40;;;;;;4971671;28;20031;-49
2023/06/17 04:00:35;;;;;;;6.20;4.72;;;16.20;51.60;;;;;;4954618;28;20045;-46
2023/06/17 04:03:04;;;;;;;5.22;4.72;;;16.20;51.80;;;;;;4967881;28;20711;-49
2023/06/17 04:05:34;;;;;;;6.90;4.90;;;16.20;51.90;;;;;;4968785;28;20125;-47
2023/06/17 04:08:02;;;;;;;6.20;4.85;;;16.20;52.00;;;;;;4961715;28;20039;-46
2023/06/17 04:10:37;;;;;;;5.72;4.57;;;16.20;52.20;;;;;;4969946;28;20060;-46
2023/06/17 04:13:05;;;;;;;5.32;4.85;;;16.20;52.30;;;;;;4951544;28;20126;-49
2023/06/17 04:15:32;;;;;;;6.25;4.80;;;16.20;52.90;;;;;;4971200;28;20050;-46
2023/06/17 04:17:59;;;;;;;5.75;5.25;;;16.30;52.70;;;;;;4969587;28;20055;-45
2023/06/17 04:20:34;;;;;;;5.83;5.20;;;16.30;52.90;;;;;;4949206;28;20073;-45
2023/06/17 04:23:02;;;;;;;6.25;4.90;;;16.30;53.00;;;;;;4966711;28;20340;-46
2023/06/17 04:25:36;;;;;;;5.72;4.82;;;16.30;53.10;;;;;;4975625;28;20046;-50
2023/06/17 04:28:12;;;;;;;5.68;5.18;;;16.40;53.40;;;;;;4963171;28;20046;-46
2023/06/17 04:30:45;;;;;;;5.03;4.60;;;16.40;53.90;;;;;;4966497;28;20047;-49
2023/06/17 04:33:14;;;;;;;6.65;5.35;;;16.50;53.80;;;;;;4967424;28;20397;-49
2023/06/17 04:35:44;;;;;;;7.07;5.70;;;16.50;54.10;;;;;;4970953;28;20047;-50
2023/06/17 04:38:11;;;;;;;6.25;5.65;;;16.50;54.30;;;;;;4969903;28;20467;-50
2023/06/17 04:40:39;;;;;;;6.13;5.53;;;16.60;54.50;;;;;;4953084;28;20031;-46
2023/06/17 04:43:15;;;;;;;6.45;5.82;;;16.70;54.60;;;;;;4947915;28;20045;-49
2023/06/17 04:45:42;;;;;;;8.98;5.40;;;16.70;54.80;;;;;;4965519;28;20042;-48
2023/06/17 04:48:10;;;;;;;5.78;5.28;;;16.80;55.00;;;;;;4969294;28;20052;-48
2023/06/17 04:50:37;;;;;;;8.48;5.75;;;16.80;55.10;;;;;;4953244;28;20042;-46
2023/06/17 04:53:07;;;;;;;7.10;6.40;;;16.90;55.20;;;;;;4960406;28;20090;-45
2023/06/17 04:55:38;;;;;;;7.80;5.53;;;16.90;55.40;;;;;;4970674;28;20474;-46
2023/06/17 04:58:14;;;;;;;7.10;6.40;;;17.00;55.50;;;;;;4951786;28;20129;-49
2023/06/17 05:00:55;;;;;;;6.65;5.95;;;17.10;56.00;;;;;;4968936;28;20065;-47
2023/06/17 05:03:27;;;;;;;8.70;6.43;;;17.10;55.70;;;;;;4966172;28;20054;-45
2023/06/17 05:05:57;;;;;;;6.22;5.20;;;17.20;55.90;;;;;;4969214;28;20043;-46
2023/06/17 05:08:31;;;;;;;9.52;6.47;;;17.20;56.30;;;;;;4964043;28;20478;-47
2023/06/17 05:11:00;;;;;;;9.18;7.18;;;17.30;56.10;;;;;;4963533;28;20100;-46
2023/06/17 05:13:31;;;;;;;7.72;6.43;;;17.40;56.10;;;;;;4969247;28;20046;-48
2023/06/17 05:16:02;;;;;;;6.40;5.75;;;17.50;56.80;;;;;;4954584;28;20051;-49
2023/06/17 05:18:31;;;;;;;6.32;5.72;;;17.50;56.40;;;;;;4971912;28;20053;-50
2023/06/17 05:21:11;;;;;;;6.85;6.18;;;17.60;56.60;;;;;;4966689;28;20074;-46
2023/06/17 05:23:38;;;;;;;7.90;7.05;;;17.60;56.90;;;;;;4971329;28;20125;-48
2023/06/17 05:26:07;;;;;;;7.35;6.30;;;17.70;56.80;;;;;;4984370;28;20101;-47
2023/06/17 05:28:41;;;;;;;7.38;6.05;;;17.80;56.50;;;;;;4996335;28;20411;-50
2023/06/17 05:31:11;;;;;;;6.85;6.15;;;17.90;56.80;;;;;;4975580;28;20096;-51
2023/06/17 05:33:41;;;;;;;7.22;6.47;;;18.00;57.30;;;;;;4975439;28;20042;-49
2023/06/17 05:36:08;;;;;;;7.72;6.35;;;18.00;57.40;;;;;;4975192;28;20391;-50
2023/06/17 05:38:39;;;;;;;6.75;6.10;;;18.10;57.00;;;;;;4974993;28;20050;-49
2023/06/17 05:41:06;;;;;;;8.05;6.35;;;18.20;56.90;;;;;;4972305;28;20043;-51
2023/06/17 05:43:33;;;;;;;7.03;6.38;;;18.30;57.10;;;;;;4965569;28;20062;-50
2023/06/17 05:46:00;;;;;;;7.57;6.32;;;18.40;57.40;;;;;;4968788;28;20142;-47
2023/06/17 05:48:28;;;;;;;7.78;5.60;;;18.50;57.50;;;;;;4958150;28;20042;-47
2023/06/17 05:50:57;;;;;;;6.72;6.03;;;18.50;57.30;;;;;;4986248;28;20130;-51
2023/06/17 05:53:24;;;;;;;6.38;5.78;;;18.60;57.40;;;;;;4961039;28;20523;-49
2023/06/17 05:56:02;;;;;;;;;;;;;;;;;;;;;
2023/06/17 05:58:30;;;;;;;7.90;5.78;;;18.80;56.70;;;;;;4973160;28;20074;-47
2023/06/17 06:01:00;;;;;;;7.30;6.65;;;18.90;57.00;;;;;;4974443;28;20092;-50
2023/06/17 06:03:27;;;;;;;5.80;4.93;;;19.00;56.00;;;;;;4982041;28;20505;-50
2023/06/17 06:05:56;;;;;;;5.97;5.43;;;19.10;55.40;;;;;;4971311;28;20051;-50
2023/06/17 06:08:25;;;;;;;5.82;5.25;;;19.10;55.00;;;;;;4980335;28;20412;-50
2023/06/17 06:10:59;;;;;;;5.82;5.32;;;19.20;54.10;;;;;;4980345;28;20090;-49
2023/06/17 06:13:29;;;;;;;6.85;5.78;;;19.30;53.40;;;;;;4974819;28;20057;-48
2023/06/17 06:15:55;;;;;;;10.45;6.78;;;19.40;52.80;;;;;;4988917;28;20043;-49
2023/06/17 06:18:29;;;;;;;6.07;5.47;;;19.50;53.00;;;;;;4968764;28;20043;-51
2023/06/17 06:20:57;;;;;;;6.82;4.93;;;19.60;52.30;;;;;;4972752;28;20138;-51
2023/06/17 06:23:24;;;;;;;4.93;4.53;;;19.70;52.30;;;;;;4968368;28;20463;-51
2023/06/17 06:25:53;;;;;;;5.93;4.53;;;19.70;52.50;;;;;;4966896;28;20093;-52
2023/06/17 06:28:20;;;;;;;5.35;4.95;;;19.80;52.10;;;;;;4982540;28;20715;-49
2023/06/17 06:30:49;;;;;;;5.40;4.90;;;19.90;52.10;;;;;;4974891;28;20046;-52
2023/06/17 06:33:22;;;;;;;5.57;5.05;;;20.00;52.20;;;;;;4975264;28;20129;-52
2023/06/17 06:35:50;;;;;;;5.82;4.95;;;20.10;51.90;;;;;;4955141;28;20071;-51
2023/06/17 06:38:19;;;;;;;5.18;4.72;;;20.20;51.50;;;;;;4973114;28;20030;-51
2023/06/17 06:40:47;;;;;;;5.75;5.25;;;20.30;51.30;;;;;;4972779;28;20038;-50
2023/06/17 06:43:18;;;;;;;5.45;4.95;;;20.40;51.40;;;;;;4954719;28;20066;-51
2023/06/17 06:45:56;;;;;;;5.47;4.35;;;20.40;51.10;;;;;;4969287;28;20057;-48
2023/06/17 06:48:22;;;;;;;7.03;4.95;;;20.50;51.20;;;;;;4990311;28;20035;-50
2023/06/17 06:50:50;;;;;;;4.63;4.25;;;20.60;51.50;;;;;;4958247;28;20075;-51
2023/06/17 06:53:21;;;;;;;5.22;4.72;;;20.70;50.90;;;;;;4967756;28;20047;-50
2023/06/17 06:55:49;;;;;;;5.63;4.40;;;20.70;50.80;;;;;;4970124;28;20058;-50
2023/06/17 06:58:19;;;;;;;5.70;5.20;;;20.80;50.50;;;;;;4992710;28;20030;-50
2023/06/17 07:00:47;;;;;;;5.55;4.40;;;20.80;50.40;;;;;;4987348;28;20109;-50
2023/06/17 07:03:18;;;;;;;4.88;4.40;;;20.90;50.90;;;;;;4977327;28;20050;-50
2023/06/17 07:05:47;;;;;;;4.85;4.45;;;21.00;49.90;;;;;;4975044;28;20125;-51
2023/06/17 07:08:18;;;;;;;4.40;4.00;;;21.10;49.50;;;;;;4960207;28;20733;-48
2023/06/17 07:10:47;;;;;;;6.32;4.57;;;21.10;49.30;;;;;;4963902;28;20101;-49
2023/06/17 07:13:18;;;;;;;5.38;4.80;;;21.20;49.50;;;;;;4976422;28;20049;-51
2023/06/17 07:15:47;;;;;;;5.20;4.38;;;21.30;49.00;;;;;;4974355;28;20125;-47
2023/06/17 07:18:16;;;;;;;5.57;3.90;;;21.40;48.90;;;;;;4974509;28;20432;-47
2023/06/17 07:20:43;;;;;;;3.90;3.60;;;21.40;48.40;;;;;;4958217;28;20042;-51
2023/06/17 07:23:16;;;;;;;5.53;4.15;;;21.50;48.20;;;;;;4981464;28;20561;-49
2023/06/17 07:25:44;;;;;;;7.18;4.03;;;21.50;47.20;;;;;;4973488;28;20039;-51
2023/06/17 07:28:17;;;;;;;4.35;3.55;;;21.60;46.70;;;;;;4974369;28;20498;-48
2023/06/17 07:30:44;;;;;;;4.40;3.67;;;21.70;46.90;;;;;;4974342;28;20042;-50
2023/06/17 07:33:11;;;;;;;4.57;3.85;;;21.80;47.20;;;;;;4969033;28;20043;-50
2023/06/17 07:35:40;;;;;;;4.75;4.30;;;21.90;46.60;;;;;;4970367;28;20038;-47
2023/06/17 07:38:08;;;;;;;4.53;3.90;;;21.90;46.60;;;;;;4989576;28;20061;-50
2023/06/17 07:40:38;;;;;;;4.03;3.65;;;22.00;46.60;;;;;;4991464;28;20081;-49
2023/06/17 07:43:07;;;;;;;4.90;4.25;;;22.10;46.60;;;;;;4981759;28;20105;-47
2023/06/17 07:45:44;;;;;;;5.35;3.72;;;22.10;45.40;;;;;;4982992;28;20045;-49
2023/06/17 07:48:14;;;;;;;4.63;3.67;;;22.20;45.30;;;;;;4991039;28;20121;-49
2023/06/17 07:50:41;;;;;;;4.28;3.65;;;22.30;45.40;;;;;;4991063;28;20050;-47
2023/06/17 07:53:08;;;;;;;4.60;3.90;;;22.30;45.10;;;;;;4958262;28;20427;-51
2023/06/17 07:55:41;;;;;;;6.20;4.20;;;22.40;44.70;;;;;;4972191;28;20081;-51
2023/06/17 07:58:11;;;;;;;4.65;3.55;;;22.40;44.50;;;;;;4990734;28;20041;-49
2023/06/17 08:00:38;;;;;;;3.58;3.25;;;22.50;43.80;;;;;;4973878;28;20030;-51
2023/06/17 08:03:05;;;;;;;4.07;3.25;;;22.50;43.40;;;;;;4976167;28;20165;-51
2023/06/17 08:05:36;;;;;;;4.70;3.38;;;22.60;43.10;;;;;;4979101;28;20137;-50
2023/06/17 08:08:09;;;;;;;3.63;2.90;;;22.70;42.70;;;;;;4990704;28;20058;-51
2023/06/17 08:10:36;;;;;;;3.55;3.00;;;22.80;41.90;;;;;;4984488;28;20065;-51
2023/06/17 08:13:08;;;;;;;4.70;3.15;;;22.80;41.70;;;;;;4974043;28;20066;-51
2023/06/17 08:15:35;;;;;;;3.53;3.22;;;22.90;41.70;;;;;;4990946;28;20046;-51
2023/06/17 08:18:04;;;;;;;5.30;3.63;;;22.90;41.10;;;;;;4991427;28;20442;-50
2023/06/17 08:20:32;;;;;;;4.55;3.88;;;23.00;40.90;;;;;;4977589;28;20684;-48
2023/06/17 08:23:01;;;;;;;3.47;2.97;;;23.00;41.40;;;;;;4973585;28;20057;-50
2023/06/17 08:25:31;;;;;;;3.05;2.83;;;23.10;41.10;;;;;;4969633;28;20044;-50
2023/06/17 08:28:07;;;;;;;3.58;2.90;;;23.10;41.10;;;;;;4985795;28;20089;-50
2023/06/17 08:30:33;;;;;;;2.95;2.65;;;23.20;40.50;;;;;;4965312;28;20039;-47
2023/06/17 08:33:05;;;;;;;3.05;2.78;;;23.20;40.10;;;;;;4982590;28;20070;-51
2023/06/17 08:35:31;;;;;;;2.92;2.72;;;23.30;40.00;;;;;;4954902;28;20038;-51
2023/06/17 08:37:58;;;;;;;3.15;2.72;;;23.30;39.70;;;;;;4980682;28;20047;-50
2023/06/17 08:40:26;;;;;;;3.22;2.92;;;23.40;40.20;;;;;;4965291;28;20093;-51
2023/06/17 08:43:01;;;;;;;4.22;2.97;;;23.40;40.00;;;;;;4969432;28;20053;-50
2023/06/17 08:45:28;;;;;;;3.33;3.03;;;23.50;39.10;;;;;;4973041;28;20045;-48
2023/06/17 08:47:56;;;;;;;5.43;3.30;;;23.60;38.50;;;;;;4986177;28;20096;-51
2023/06/17 08:50:26;;;;;;;3.75;3.22;;;23.60;38.40;;;;;;4986293;28;20495;-51
2023/06/17 08:52:53;;;;;;;4.32;3.90;;;23.70;38.90;;;;;;4975766;28;20078;-48
2023/06/17 08:55:21;;;;;;;4.38;4.07;;;23.80;38.60;;;;;;4969643;28;20081;-50
2023/06/17 08:57:52;;;;;;;4.45;3.67;;;23.80;38.50;;;;;;4986460;28;20718;-51
2023/06/17 09:00:19;;;;;;;3.85;3.45;;;23.90;38.20;;;;;;4982832;28;20129;-48
2023/06/17 09:02:46;;;;;;;4.00;3.60;;;23.80;38.00;;;;;;4985198;28;20511;-51
2023/06/17 09:05:13;;;;;;;5.10;3.60;;;24.00;37.70;;;;;;4968612;28;20061;-49
2023/06/17 09:07:41;;;;;;;3.75;3.45;;;24.10;37.80;;;;;;4984886;28;20057;-49
2023/06/17 09:10:09;;;;;;;4.53;3.15;;;24.10;38.20;;;;;;4987061;28;20133;-50
2023/06/17 09:12:37;;;;;;;5.18;3.50;;;24.20;38.20;;;;;;4988022;28;20046;-50
2023/06/17 09:15:14;;;;;;;5.93;3.50;;;24.20;37.90;;;;;;4973599;28;20519;-51
2023/06/17 09:17:43;;;;;;;3.45;3.15;;;24.30;37.60;;;;;;4969197;28;20047;-48
2023/06/17 09:20:12;;;;;;;3.45;3.15;;;24.40;37.90;;;;;;4985151;28;20089;-51
2023/06/17 09:22:48;;;;;;;3.60;3.30;;;24.40;37.60;;;;;;4978496;28;20046;-50
2023/06/17 09:25:16;;;;;;;4.32;3.83;;;24.50;37.60;;;;;;4965973;28;20042;-49
2023/06/17 09:27:54;;;;;;;3.88;3.10;;;24.60;37.50;;;;;;4984543;28;20058;-49
2023/06/17 09:30:42;;;;;;;4.68;3.70;;;24.70;37.60;;;;;;4971754;28;20046;-49
2023/06/17 09:33:17;;;;;;;5.28;3.83;;;24.70;37.30;;;;;;4980865;28;20046;-51
2023/06/17 09:35:44;;;;;;;7.28;3.92;;;24.80;36.30;;;;;;4976175;28;20081;-50
2023/06/17 09:38:17;;;;;;;5.22;3.10;;;24.90;36.80;;;;;;4983269;28;20606;-51
2023/06/17 09:40:43;;;;;;;;;;;24.90;36.70;;;;;;4988387;28;20093;-51
2023/06/17 09:43:12;;;;;;;3.22;2.90;;;25.00;37.50;;;;;;4959897;28;19984;-50
2023/06/17 09:46:04;;;;;;;4.53;3.50;;;25.10;36.90;;;;;;4980056;28;20062;-49
2023/06/17 09:48:33;;;;;;;3.67;3.05;;;25.10;36.90;;;;;;4973141;28;20133;-50
2023/06/17 09:51:01;;;;;;;3.67;3.25;;;25.20;36.70;;;;;;4978836;28;20047;-49
2023/06/17 09:53:29;;;;;;;4.10;3.67;;;25.20;36.40;;;;;;4959625;28;20453;-50
2023/06/17 09:55:58;;;;;;;4.03;3.67;;;25.30;36.30;;;;;;4968190;28;20042;-51
2023/06/17 09:58:29;;;;;;;3.92;3.63;;;25.40;36.80;;;;;;4989228;28;20069;-49
2023/06/17 10:01:02;;;;;;;6.13;4.10;;;25.50;36.10;;;;;;4981377;28;20049;-48
2023/06/17 10:03:29;;;;;;;5.28;4.10;;;25.50;36.10;;;;;;4965112;28;20039;-48
2023/06/17 10:06:16;;;;;;;3.90;3.50;;;25.60;36.20;;;;;;4972678;28;20051;-50
2023/06/17 10:08:47;;;;;;;4.45;3.78;;;25.70;35.50;;;;;;4970357;28;20412;-52
2023/06/17 10:11:17;;;;;;;4.20;3.80;;;25.70;36.00;;;;;;4971945;28;20055;-49
2023/06/17 10:13:53;;;;;;;6.93;3.50;;;25.80;35.60;;;;;;4973275;28;20077;-51
2023/06/17 10:16:23;;;;;;;3.90;3.60;;;25.80;35.20;;;;;;4975882;28;20057;-47
2023/06/17 10:18:53;;;;;;;4.00;3.65;;;25.80;35.20;;;;;;4987602;28;20046;-49
2023/06/17 10:21:23;;;;;;;5.22;4.20;;;25.80;35.20;;;;;;4969643;28;20039;-51
2023/06/17 10:23:52;;;;;;;4.72;4.13;;;25.90;35.20;;;;;;4975287;28;20074;-49
2023/06/17 10:26:21;;;;;;;3.92;3.63;;;26.00;35.10;;;;;;4976734;28;20043;-50
2023/06/17 10:28:53;;;;;;;5.63;4.22;;;26.00;35.80;;;;;;4991687;28;20042;-47
2023/06/17 10:31:25;;;;;;;5.05;4.07;;;26.10;35.30;;;;;;4985945;28;20399;-50
2023/06/17 10:33:57;;;;;;;4.65;4.03;;;26.20;35.00;;;;;;4971605;28;20038;-51
2023/06/17 10:36:25;;;;;;;3.88;3.03;;;26.20;35.70;;;;;;4981063;28;20210;-47
2023/06/17 10:39:06;;;;;;;5.47;4.40;;;26.20;35.30;;;;;;4991870;28;20585;-50
2023/06/17 10:41:42;;;;;;;3.72;3.40;;;26.30;34.60;;;;;;4988128;28;20034;-51
2023/06/17 10:44:25;;;;;;;4.30;3.85;;;26.40;34.80;;;;;;4975786;28;20077;-48
2023/06/17 10:46:52;;;;;;;5.03;3.78;;;26.50;34.80;;;;;;4974354;28;20533;-48
2023/06/17 10:49:19;;;;;;;4.40;3.85;;;26.50;35.20;;;;;;4970376;28;20108;-47
2023/06/17 10:51:50;;;;;;;8.20;4.30;;;26.60;34.80;;;;;;4965669;28;20531;-52
2023/06/17 10:54:28;;;;;;;4.80;3.50;;;26.60;35.00;;;;;;4968733;28;20038;-47
2023/06/17 10:56:55;;;;;;;3.92;3.63;;;26.60;35.10;;;;;;4951043;28;20047;-47
2023/06/17 10:59:29;;;;;;;6.28;4.22;;;26.70;35.20;;;;;;4985127;28;20034;-49
2023/06/17 11:02:03;;;;;;;4.35;3.45;;;26.80;35.40;;;;;;4974948;28;20039;-52
2023/06/17 11:04:31;;;;;;;4.47;3.80;;;26.90;35.30;;;;;;4969785;28;20403;-53
2023/06/17 11:07:00;;;;;;;3.92;3.63;;;26.90;34.90;;;;;;4969685;28;20118;-50
2023/06/17 11:09:28;;;;;;;4.75;3.40;;;27.00;34.80;;;;;;4970964;28;20097;-50
2023/06/17 11:11:57;;;;;;;4.55;4.15;;;27.10;34.20;;;;;;4966042;28;20664;-52
2023/06/17 11:14:27;;;;;;;4.10;3.80;;;27.20;34.10;;;;;;4977719;28;20038;-51
2023/06/17 11:16:54;;;;;;;5.20;3.72;;;27.20;34.10;;;;;;4982640;28;20124;-52
2023/06/17 11:19:20;;;;;;;3.30;3.00;;;27.30;33.40;;;;;;4990104;28;20049;-51
2023/06/17 11:21:55;;;;;;;5.40;3.13;;;27.40;31.90;;;;;;4967450;28;20035;-50
2023/06/17 11:24:21;;;;;;;3.33;2.97;;;27.40;31.20;;;;;;4974620;28;20570;-51
2023/06/17 11:26:48;;;;;;;3.00;2.70;;;27.40;30.90;;;;;;4972379;28;20492;-51
2023/06/17 11:29:15;;;;;;;3.45;2.22;;;27.50;29.10;;;;;;4988324;28;20043;-51
2023/06/17 11:31:42;;;;;;;3.33;3.10;;;27.50;28.60;;;;;;4986995;28;20096;-48
2023/06/17 11:34:11;;;;;;;4.35;3.00;;;27.60;28.90;;;;;;4975506;28;20051;-50
2023/06/17 11:36:39;;;;;;;3.65;3.00;;;27.70;29.30;;;;;;4976319;28;20053;-51
2023/06/17 11:39:06;;;;;;;2.97;2.78;;;27.80;29.30;;;;;;4964871;28;20066;-49
2023/06/17 11:41:33;;;;;;;3.28;2.97;;;27.80;29.60;;;;;;4969571;28;20042;-51
2023/06/17 11:44:00;;;;;;;3.67;2.80;;;27.80;29.60;;;;;;4977921;28;20179;-48
2023/06/17 11:46:27;;;;;;;4.53;3.63;;;27.90;29.80;;;;;;4991691;28;20089;-48
2023/06/17 11:48:55;;;;;;;3.67;3.03;;;28.00;30.80;;;;;;4981597;28;20046;-51
2023/06/17 11:51:23;;;;;;;3.70;3.40;;;28.10;31.40;;;;;;4972633;28;20644;-46
2023/06/17 11:53:50;;;;;;;3.50;3.17;;;28.20;31.80;;;;;;4971721;28;20122;-50
2023/06/17 11:56:20;;;;;;;3.70;3.40;;;28.30;31.80;;;;;;4981460;28;20531;-49
2023/06/17 11:58:49;;;;;;;6.40;3.30;;;28.50;31.90;;;;;;4982391;28;20496;-50
2023/06/17 12:01:16;;;;;;;3.75;3.15;;;28.50;31.00;;;;;;4990408;28;20535;-50
2023/06/17 12:03:46;;;;;;;3.58;3.20;;;28.60;31.20;;;;;;4977882;28;20061;-48
2023/06/17 12:06:18;;;;;;;3.50;3.30;;;28.80;31.10;;;;;;4983614;28;20073;-49
2023/06/17 12:08:55;;;;;;;3.70;3.28;;;28.90;30.90;;;;;;4989059;28;20502;-48
2023/06/17 12:14:08;;;;;;;3.38;3.08;;;29.20;30.00;;;;;;4989204;28;20060;-48
2023/06/17 12:16:36;;;;;;;3.25;2.97;;;29.30;29.90;;;;;;4990385;28;20534;-49
2023/06/17 12:19:06;;;;;;;3.30;3.00;;;29.50;30.50;;;;;;4990094;28;20121;-49
2023/06/17 12:21:34;;;;;;;3.50;3.13;;;29.60;30.30;;;;;;4977677;28;20034;-48
2023/06/17 12:24:02;;;;;;;4.90;2.92;;;29.70;29.30;;;;;;5005248;28;20070;-46
2023/06/17 12:26:31;;;;;;;3.38;2.67;;;29.80;28.90;;;;;;5001693;28;20402;-46
2023/06/17 12:28:58;;;;;;;3.47;3.17;;;30.00;29.00;;;;;;5003901;28;20695;-48
2023/06/17 12:31:31;;;;;;;4.25;3.35;;;30.20;28.40;;;;;;5007113;28;20100;-48
2023/06/17 12:33:58;;;;;;;3.00;2.78;;;30.20;28.10;;;;;;5008055;28;20514;-55
2023/06/17 12:36:25;;;;;;;3.15;2.83;;;30.30;28.00;;;;;;5007092;28;20134;-55
2023/06/17 12:38:52;;;;;;;3.85;2.90;;;30.40;28.30;;;;;;5002990;28;20073;-55
2023/06/17 12:41:19;;;;;;;3.65;3.33;;;30.60;28.00;;;;;;5008291;28;20070;-55
2023/06/17 12:43:45;;;;;;;4.97;3.15;;;30.70;28.00;;;;;;5006938;28;20461;-55
2023/06/17 12:46:17;;;;;;;2.83;2.60;;;30.80;27.90;;;;;;5002517;28;20061;-56
2023/06/17 12:48:44;;;;;;;5.50;3.17;;;31.00;27.70;;;;;;5007845;28;20707;-56
2023/06/17 12:51:11;;;;;;;3.42;3.13;;;31.10;27.40;;;;;;5006992;28;20677;-55
2023/06/17 12:53:39;;;;;;;3.15;2.85;;;31.30;27.40;;;;;;5005816;28;20050;-54
2023/06/17 12:56:05;;;;;;;2.75;2.42;;;31.40;27.10;;;;;;5007811;28;20483;-51
2023/06/17 12:58:32;;;;;;;2.88;2.67;;;31.50;27.00;;;;;;5000272;28;20048;-50
2023/06/17 13:00:59;;;;;;;3.30;2.22;;;31.60;26.80;;;;;;5007690;28;20046;-50
2023/06/17 13:03:28;;;;;;;10.25;2.95;;;31.70;27.10;;;;;;5008042;28;20073;-48